| time (UTC) | temp C | wind direction | speed KPH | gust KPH | rain 1hr cm | rain 24hr cm | rain mn cm | humidity % | barometer mb |
| 20260906053047 | 25 | 94 | 24.1 | 46.7 | 0.00 | 0.00 | 0.00 | 51 | 1021.3 |
| 20260906051545 | 24 | 72 | 25.7 | 45.1 | 0.00 | 0.00 | 0.00 | 52 | 1021.2 |
| 20260906050050 | 24 | 105 | 30.6 | 45.1 | 0.00 | 0.00 | 0.00 | 53 | 1021.1 |
| 20260906044553 | 24 | 124 | 27.4 | 48.3 | 0.00 | 0.00 | 0.00 | 53 | 1021.0 |
| 20260906043048 | 24 | 116 | 29.0 | 43.5 | 0.00 | 0.00 | 0.00 | 53 | 1021.0 |
| 20260906041546 | 24 | 100 | 22.5 | 35.4 | 0.00 | 0.00 | 0.00 | 54 | 1020.8 |
| 20260906040048 | 24 | 102 | 22.5 | 35.4 | 0.00 | 0.00 | 0.00 | 53 | 1020.7 |
| 20260906034600 | 24 | 103 | 17.7 | 32.2 | 0.00 | 0.00 | 0.00 | 53 | 1020.5 |
| 20260906033045 | 25 | 101 | 25.7 | 35.4 | 0.00 | 0.00 | 0.00 | 52 | 1020.4 |
| 20260906031549 | 25 | 122 | 24.1 | 40.2 | 0.00 | 0.00 | 0.00 | 51 | 1020.3 |
| 20260906030043 | 25 | 101 | 24.1 | 37.0 | 0.00 | 0.00 | 0.00 | 52 | 1020.3 |
| 20260906024546 | 25 | 98 | 25.7 | 40.2 | 0.00 | 0.00 | 0.00 | 51 | 1020.3 |
| 20260906023049 | 25 | 113 | 25.7 | 38.6 | 0.00 | 0.00 | 0.00 | 51 | 1020.2 |
| 20260906021601 | 25 | 88 | 22.5 | 38.6 | 0.00 | 0.00 | 0.00 | 51 | 1020.1 |
| 20260906020055 | 25 | 86 | 19.3 | 35.4 | 0.00 | 0.00 | 0.00 | 53 | 1020.1 |
| 20260906014552 | 24 | 105 | 16.1 | 24.1 | 0.00 | 0.00 | 0.00 | 55 | 1020.2 |
| 20260906013042 | 24 | 108 | 14.5 | 25.7 | 0.00 | 0.00 | 0.00 | 54 | 1020.2 |
| 20260906011551 | 24 | 109 | 17.7 | 25.7 | 0.00 | 0.00 | 0.00 | 54 | 1020.2 |
| 20260906010048 | 24 | 114 | 16.1 | 20.9 | 0.00 | 0.00 | 0.00 | 54 | 1020.1 |
| 20260906004545 | 24 | 76 | 14.5 | 24.1 | 0.00 | 0.00 | 0.00 | 54 | 1020.0 |
| 20260906003046 | 23 | 128 | 12.9 | 22.5 | 0.00 | 0.00 | 0.00 | 58 | 1020.2 |
| 20260906001544 | 22 | 98 | 12.9 | 19.3 | 0.00 | 0.00 | 0.00 | 60 | 1020.2 |
| 20260906000047 | 23 | 105 | 9.7 | 17.7 | 0.00 | 0.00 | 0.00 | 59 | 1020.2 |
| 20260905234544 | 23 | 108 | 14.5 | 19.3 | 0.00 | 0.00 | 0.00 | 58 | 1019.9 |
| 20260905233044 | 23 | 109 | 12.9 | 17.7 | 0.00 | 0.00 | 0.00 | 58 | 1019.9 |
| 20260905231542 | 23 | 114 | 14.5 | 20.9 | 0.00 | 0.00 | 0.00 | 58 | 1019.8 |
| 20260905230052 | 23 | 89 | 12.9 | 19.3 | 0.00 | 0.00 | 0.00 | 58 | 1019.8 |
| 20260905224551 | 23 | 94 | 12.9 | 19.3 | 0.00 | 0.00 | 0.00 | 58 | 1019.8 |
| 20260905223045 | 24 | 98 | 14.5 | 20.9 | 0.00 | 0.00 | 0.00 | 57 | 1019.7 |
| 20260905221547 | 24 | 105 | 14.5 | 19.3 | 0.00 | 0.00 | 0.00 | 57 | 1019.7 |
| 20260905220045 | 24 | 89 | 12.9 | 19.3 | 0.00 | 0.00 | 0.00 | 56 | 1019.6 |
| 20260905214545 | 24 | 104 | 11.3 | 19.3 | 0.00 | 0.00 | 0.00 | 58 | 1019.6 |
| 20260905213049 | 24 | 85 | 12.9 | 16.1 | 0.00 | 0.00 | 0.00 | 58 | 1019.4 |
| 20260905211547 | 24 | 86 | 11.3 | 17.7 | 0.00 | 0.00 | 0.00 | 58 | 1019.4 |
| 20260905210058 | 24 | 110 | 12.9 | 20.9 | 0.00 | 0.00 | 0.00 | 60 | 1019.4 |
| 20260905204546 | 23 | 99 | 9.7 | 12.9 | 0.00 | 0.00 | 0.00 | 62 | 1019.3 |
| 20260905203043 | 23 | 96 | 8.0 | 17.7 | 0.00 | 0.00 | 0.00 | 61 | 1019.2 |
| 20260905201544 | 23 | 107 | 11.3 | 14.5 | 0.00 | 0.00 | 0.00 | 61 | 1019.0 |
| 20260905200056 | 23 | 82 | 11.3 | 14.5 | 0.00 | 0.00 | 0.00 | 61 | 1018.9 |
| 20260905194546 | 23 | 87 | 8.0 | 12.9 | 0.00 | 0.00 | 0.00 | 62 | 1018.9 |
| 20260905193042 | 23 | 103 | 9.7 | 12.9 | 0.00 | 0.00 | 0.00 | 64 | 1018.7 |
| 20260905191550 | 23 | 82 | 8.0 | 11.3 | 0.00 | 0.00 | 0.00 | 63 | 1018.6 |
| 20260905190048 | 23 | 105 | 9.7 | 12.9 | 0.00 | 0.00 | 0.00 | 62 | 1018.6 |
| 20260905184549 | 23 | 82 | 6.4 | 11.3 | 0.00 | 0.00 | 0.00 | 61 | 1018.4 |
| 20260905183044 | 24 | 117 | 6.4 | 11.3 | 0.00 | 0.00 | 0.00 | 60 | 1018.2 |
| 20260905181553 | 25 | 105 | 8.0 | 12.9 | 0.00 | 0.00 | 0.00 | 58 | 1018.0 |
| 20260905180051 | 26 | 89 | 11.3 | 12.9 | 0.00 | 0.00 | 0.00 | 55 | 1017.8 |
| 20260905174544 | 27 | 127 | 14.5 | 19.3 | 0.00 | 0.00 | 0.00 | 52 | 1017.6 |
| 20260905173045 | 27 | 125 | 11.3 | 17.7 | 0.00 | 0.00 | 0.00 | 53 | 1017.4 |
| 20260905171556 | 27 | 116 | 11.3 | 16.1 | 0.00 | 0.00 | 0.00 | 59 | 1017.3 |
| 20260905170055 | 28 | 77 | 1.6 | 3.2 | 0.00 | 0.00 | 0.00 | 62 | 1017.1 |
| 20260905164547 | 29 | 130 | 0.0 | 3.2 | 0.00 | 0.00 | 0.00 | 66 | 1017.0 |
| 20260905163041 | 30 | 312 | 0.0 | 3.2 | 0.00 | 0.00 | 0.00 | 65 | 1016.7 |
| 20260905161547 | 30 | 124 | 0.0 | 3.2 | 0.00 | 0.00 | 0.00 | 49 | 1016.6 |
| 20260905160050 | 30 | 185 | 0.0 | 3.2 | 0.00 | 0.00 | 0.00 | 60 | 1016.4 |
| 20260905154552 | 30 | 220 | 1.6 | 3.2 | 0.00 | 0.00 | 0.00 | 59 | 1016.4 |
| 20260905153047 | 30 | 220 | 3.2 | 9.7 | 0.00 | 0.00 | 0.00 | 57 | 1016.5 |
| 20260905151548 | 31 | 154 | 1.6 | 8.0 | 0.00 | 0.00 | 0.00 | 57 | 1016.4 |
| 20260905150046 | 31 | 234 | 1.6 | 6.4 | 0.00 | 0.00 | 0.00 | 55 | 1016.4 |
| 20260905144550 | 31 | 240 | 4.8 | 11.3 | 0.00 | 0.00 | 0.00 | 55 | 1016.4 |
| 20260905143050 | 32 | 259 | 3.2 | 8.0 | 0.00 | 0.00 | 0.00 | 49 | 1016.3 |
| 20260905141547 | 32 | 208 | 4.8 | 8.0 | 0.00 | 0.00 | 0.00 | 48 | 1016.4 |
| 20260905140045 | 31 | 274 | 1.6 | 11.3 | 0.00 | 0.00 | 0.00 | 45 | 1016.4 |
| 20260905134549 | 31 | 272 | 4.8 | 12.9 | 0.00 | 0.00 | 0.00 | 48 | 1016.6 |
| 20260905133047 | 31 | 301 | 6.4 | 11.3 | 0.00 | 0.00 | 0.00 | 54 | 1016.6 |
| 20260905131546 | 31 | 206 | 6.4 | 12.9 | 0.00 | 0.00 | 0.00 | 57 | 1016.4 |
| 20260905130043 | 31 | 241 | 3.2 | 9.7 | 0.00 | 0.00 | 0.00 | 57 | 1016.7 |
| 20260905124551 | 31 | 122 | 3.2 | 11.3 | 0.00 | 0.00 | 0.00 | 56 | 1016.7 |
| 20260905123048 | 31 | 287 | 1.6 | 9.7 | 0.00 | 0.00 | 0.00 | 53 | 1016.9 |
| 20260905121543 | 31 | 309 | 3.2 | 9.7 | 0.00 | 0.00 | 0.00 | 51 | 1017.0 |
| 20260905120050 | 31 | 226 | 3.2 | 11.3 | 0.00 | 0.00 | 0.00 | 53 | 1017.0 |
| 20260905114553 | 30 | 228 | 6.4 | 12.9 | 0.00 | 0.00 | 0.00 | 52 | 1017.1 |
| 20260905113043 | 31 | 217 | 3.2 | 11.3 | 0.00 | 0.00 | 0.00 | 50 | 1017.1 |
| 20260905111600 | 30 | 315 | 6.4 | 12.9 | 0.00 | 0.00 | 0.00 | 49 | 1017.1 |
| 20260905104549 | 30 | 204 | 1.6 | 6.4 | 0.00 | 0.00 | 0.00 | 42 | 1017.1 |
| 20260905103045 | 30 | 265 | 1.6 | 4.8 | 0.00 | 0.00 | 0.00 | 40 | 1017.4 |
| 20260905101549 | 30 | 263 | 3.2 | 6.4 | 0.00 | 0.00 | 0.00 | 38 | 1017.3 |
| 20260905100049 | 30 | 256 | 3.2 | 11.3 | 0.00 | 0.00 | 0.00 | 39 | 1017.3 |
| 20260905094558 | 30 | 251 | 6.4 | 14.5 | 0.00 | 0.00 | 0.00 | 38 | 1017.3 |
| 20260905093044 | 29 | 252 | 3.2 | 12.9 | 0.00 | 0.00 | 0.00 | 41 | 1017.4 |
| 20260905091600 | 30 | 258 | 3.2 | 9.7 | 0.00 | 0.00 | 0.00 | 38 | 1017.3 |
| 20260905090046 | 30 | 107 | 3.2 | 6.4 | 0.00 | 0.00 | 0.00 | 36 | 1017.1 |
| 20260905084546 | 30 | 280 | 0.0 | 4.8 | 0.00 | 0.00 | 0.00 | 34 | 1017.1 |
| 20260905083049 | 29 | 36 | 1.6 | 4.8 | 0.00 | 0.00 | 0.00 | 45 | 1017.1 |
| 20260905081558 | 28 | 107 | 4.8 | 8.0 | 0.00 | 0.00 | 0.00 | 48 | 1017.0 |
| 20260905080053 | 27 | 104 | 4.8 | 11.3 | 0.00 | 0.00 | 0.00 | 51 | 1017.0 |
| 20260905074548 | 25 | 107 | 8.0 | 16.1 | 0.00 | 0.00 | 0.00 | 55 | 1016.9 |
| 20260905073048 | 25 | 70 | 6.4 | 12.9 | 0.00 | 0.00 | 0.00 | 56 | 1016.9 |
| 20260905071554 | 24 | 114 | 8.0 | 12.9 | 0.00 | 0.00 | 0.00 | 58 | 1016.6 |
| 20260905070052 | 23 | 126 | 6.4 | 14.5 | 0.00 | 0.00 | 0.00 | 61 | 1016.6 |
| 20260905064555 | 23 | 66 | 8.0 | 14.5 | 0.00 | 0.00 | 0.00 | 62 | 1016.4 |
| 20260905063044 | 21 | 109 | 9.7 | 19.3 | 0.00 | 0.00 | 0.00 | 64 | 1016.6 |
| 20260905061605 | 21 | 83 | 14.5 | 19.3 | 0.00 | 0.00 | 0.00 | 66 | 1016.4 |
| 20260905060043 | 20 | 119 | 11.3 | 19.3 | 0.00 | 0.00 | 0.00 | 70 | 1016.5 |
| 20260905054550 | 18 | 101 | 9.7 | 16.1 | 0.00 | 0.00 | 0.00 | 72 | 1016.5 |